createdAt,value
2022-11-19T00:01:06.922Z,-0.11
2022-11-19T00:03:35.001Z,-0.20
2022-11-19T00:06:13.004Z,-0.36
2022-11-19T00:08:40.114Z,-0.31
2022-11-19T00:11:12.598Z,-0.34
2022-11-19T00:13:40.732Z,-0.20
2022-11-19T00:16:12.308Z,-0.01
2022-11-19T00:18:39.781Z,0.08
2022-11-19T00:21:11.425Z,0.15
2022-11-19T00:23:39.130Z,0.35
2022-11-19T00:26:05.597Z,0.38
2022-11-19T00:28:32.386Z,0.49
2022-11-19T00:31:08.646Z,0.66
2022-11-19T00:33:36.064Z,0.76
2022-11-19T00:36:03.298Z,0.68
2022-11-19T00:38:30.416Z,0.69
2022-11-19T00:40:57.086Z,0.68
2022-11-19T00:43:42.924Z,0.85
2022-11-19T00:46:10.087Z,0.68
2022-11-19T00:48:38.131Z,0.70
2022-11-19T00:51:05.872Z,0.61
2022-11-19T00:53:32.391Z,0.72
2022-11-19T00:56:08.268Z,0.81
2022-11-19T00:58:34.739Z,0.82
2022-11-19T01:01:01.214Z,0.88
2022-11-19T01:03:27.742Z,0.90
2022-11-19T01:05:54.191Z,0.91
2022-11-19T01:08:20.725Z,0.90
2022-11-19T01:10:47.174Z,0.89
2022-11-19T01:13:32.974Z,0.84
2022-11-19T01:15:59.618Z,0.73
2022-11-19T01:18:27.721Z,0.70
2022-11-19T01:20:54.930Z,0.68
2022-11-19T01:23:21.434Z,0.68
2022-11-19T01:25:47.960Z,0.90
2022-11-19T01:28:14.444Z,1.01
2022-11-19T01:30:43.063Z,0.83
2022-11-19T01:33:10.187Z,0.86
2022-11-19T01:35:36.789Z,0.85
2022-11-19T01:38:04.445Z,0.95
2022-11-19T01:40:31.534Z,0.95
2022-11-19T01:42:57.967Z,0.99
2022-11-19T01:45:31.341Z,1.00
2022-11-19T01:48:02.537Z,1.00
2022-11-19T01:50:32.429Z,1.08
2022-11-19T01:52:59.870Z,1.11
2022-11-19T01:55:28.385Z,1.03
2022-11-19T01:57:59.923Z,1.29
2022-11-19T02:00:27.273Z,1.44
2022-11-19T02:02:54.417Z,1.20
2022-11-19T02:05:21.915Z,1.08
2022-11-19T02:07:54.925Z,1.01
2022-11-19T02:10:59.517Z,1.01
2022-11-19T02:13:39.671Z,1.11
2022-11-19T02:16:16.373Z,1.13
2022-11-19T02:18:46.430Z,1.16
2022-11-19T02:21:37.374Z,1.22
2022-11-19T02:24:15.841Z,1.21
2022-11-19T02:26:54.402Z,1.26
2022-11-19T02:29:47.264Z,0.94
2022-11-19T02:32:18.375Z,0.88
2022-11-19T02:35:01.184Z,1.01
2022-11-19T02:37:47.873Z,0.93
2022-11-19T02:40:33.201Z,1.40
2022-11-19T02:43:13.664Z,1.31
2022-11-19T02:45:47.024Z,1.17
2022-11-19T02:48:32.046Z,1.20
2022-11-19T02:51:01.626Z,1.27
2022-11-19T02:53:28.090Z,1.23
2022-11-19T02:56:12.869Z,1.28
2022-11-19T02:59:11.480Z,1.71
2022-11-19T03:02:00.782Z,1.52
2022-11-19T03:04:32.451Z,1.67
2022-11-19T03:07:09.756Z,2.00
2022-11-19T03:09:41.845Z,1.85
2022-11-19T03:12:19.468Z,1.76
2022-11-19T03:15:19.813Z,1.60
2022-11-19T03:17:58.197Z,1.50
2022-11-19T03:20:41.496Z,1.35
2022-11-19T03:23:19.853Z,1.26
2022-11-19T03:25:58.440Z,1.22
2022-11-19T03:28:32.692Z,1.23
2022-11-19T03:31:00.950Z,1.23
2022-11-19T03:33:41.917Z,1.20
2022-11-19T03:36:16.894Z,1.17
2022-11-19T03:38:49.265Z,1.10
2022-11-19T03:41:18.957Z,1.01
2022-11-19T03:43:52.062Z,0.95
2022-11-19T03:46:23.016Z,0.90
2022-11-19T03:48:54.220Z,0.88
2022-11-19T03:51:41.827Z,0.82
2022-11-19T03:54:08.677Z,0.70
2022-11-19T03:56:38.280Z,0.70
2022-11-19T03:59:07.775Z,0.68
2022-11-19T04:01:36.643Z,0.64
2022-11-19T04:04:22.371Z,0.55
2022-11-19T04:06:48.901Z,0.43
2022-11-19T04:09:15.514Z,0.45
2022-11-19T04:11:43.334Z,0.48
2022-11-19T04:14:09.800Z,0.46
2022-11-19T04:16:36.217Z,0.50
2022-11-19T04:19:02.659Z,0.40
2022-11-19T04:21:29.142Z,0.23
2022-11-19T04:23:55.541Z,0.26
2022-11-19T04:26:21.962Z,0.18
2022-11-19T04:28:48.386Z,0.22
2022-11-19T04:31:17.900Z,0.24
2022-11-19T04:33:44.609Z,0.34
2022-11-19T04:36:11.083Z,0.34
2022-11-19T04:38:37.499Z,0.35
2022-11-19T04:41:03.917Z,0.41
2022-11-19T04:43:30.338Z,0.34
2022-11-19T04:45:56.749Z,0.37
2022-11-19T04:48:23.160Z,0.34
2022-11-19T04:50:49.589Z,0.32
2022-11-19T04:53:16.053Z,0.35
2022-11-19T04:55:42.478Z,0.23
2022-11-19T04:58:09.047Z,0.25
2022-11-19T05:00:35.463Z,0.24
2022-11-19T05:03:01.906Z,0.11
2022-11-19T05:05:28.318Z,0.07
2022-11-19T05:07:54.757Z,-0.01
2022-11-19T05:10:21.353Z,0.03
2022-11-19T05:12:47.811Z,-0.10
2022-11-19T05:15:14.258Z,-0.13
2022-11-19T05:17:40.709Z,-0.01
2022-11-19T05:20:08.066Z,-0.12
2022-11-19T05:22:34.654Z,-0.17
2022-11-19T05:25:01.158Z,-0.18
2022-11-19T05:27:27.600Z,-0.12
2022-11-19T05:29:53.987Z,0.00
2022-11-19T05:32:20.595Z,0.02
2022-11-19T05:34:47.018Z,0.04
2022-11-19T05:37:13.444Z,-0.02
2022-11-19T05:39:39.881Z,-0.12
2022-11-19T05:42:06.281Z,-0.15
2022-11-19T05:44:32.698Z,-0.13
2022-11-19T05:46:59.861Z,-0.13
2022-11-19T05:49:26.334Z,-0.05
2022-11-19T05:51:52.730Z,-0.09
2022-11-19T05:54:19.156Z,-0.06
2022-11-19T05:56:45.674Z,-0.15
2022-11-19T05:59:12.067Z,0.09
2022-11-19T06:01:39.488Z,0.15
2022-11-19T06:04:05.883Z,0.04
2022-11-19T06:06:32.305Z,-0.23
2022-11-19T06:08:58.914Z,-0.33
2022-11-19T06:11:43.843Z,-0.32
2022-11-19T06:14:10.252Z,-0.35
2022-11-19T06:16:36.654Z,-0.44
2022-11-19T06:19:03.057Z,-0.54
2022-11-19T06:21:29.461Z,-0.63
2022-11-19T06:23:55.886Z,-0.65
2022-11-19T06:26:26.635Z,-0.64
2022-11-19T06:28:53.248Z,-0.79
2022-11-19T06:31:20.296Z,-0.81
2022-11-19T06:33:46.992Z,-0.85
2022-11-19T06:36:13.726Z,-0.89
2022-11-19T06:38:40.492Z,-0.92
2022-11-19T06:41:06.963Z,-0.97
2022-11-19T06:43:33.541Z,-1.01
2022-11-19T06:45:59.939Z,-0.94
2022-11-19T06:48:26.356Z,-1.05
2022-11-19T06:50:52.742Z,-0.92
2022-11-19T06:53:19.182Z,-0.99
2022-11-19T06:55:45.592Z,-1.00
2022-11-19T06:58:12.012Z,-0.99
2022-11-19T07:00:38.402Z,-0.91
2022-11-19T07:03:04.839Z,-0.82
2022-11-19T07:05:31.283Z,-0.71
2022-11-19T07:08:02.834Z,-0.73
2022-11-19T07:10:29.974Z,-0.78
2022-11-19T07:12:56.388Z,-0.65
2022-11-19T07:15:22.806Z,-0.76
2022-11-19T07:17:49.245Z,-0.83
2022-11-19T07:20:16.655Z,-0.81
2022-11-19T07:22:43.425Z,-0.64
2022-11-19T07:25:13.146Z,-0.62
2022-11-19T07:27:41.563Z,-0.61
2022-11-19T07:30:09.236Z,-0.45
2022-11-19T07:32:36.362Z,-0.36
2022-11-19T07:35:02.927Z,-0.23
2022-11-19T07:37:29.466Z,-0.19
2022-11-19T07:39:55.949Z,0.05
2022-11-19T07:42:41.071Z,0.15
2022-11-19T07:45:08.265Z,0.50
2022-11-19T07:47:35.136Z,0.54
2022-11-19T07:50:02.041Z,0.75
2022-11-19T07:52:28.633Z,0.80
2022-11-19T07:54:55.439Z,0.94
2022-11-19T07:57:27.188Z,1.06
2022-11-19T07:59:56.449Z,1.40
2022-11-19T08:02:22.863Z,1.57
2022-11-19T08:04:49.350Z,1.74
2022-11-19T08:07:16.058Z,1.72
2022-11-19T08:09:42.712Z,1.83
2022-11-19T08:12:09.253Z,1.99
2022-11-19T08:14:35.903Z,1.96
2022-11-19T08:17:21.143Z,2.17
2022-11-19T08:19:47.692Z,2.26
2022-11-19T08:22:14.311Z,2.46
2022-11-19T08:24:40.811Z,2.64
2022-11-19T08:27:07.444Z,2.80
2022-11-19T08:29:33.978Z,2.97
2022-11-19T08:32:00.675Z,3.17
2022-11-19T08:34:27.209Z,3.20
2022-11-19T08:36:53.636Z,3.36
2022-11-19T08:39:20.097Z,3.42
2022-11-19T08:42:05.194Z,3.77
2022-11-19T08:44:31.670Z,3.89
2022-11-19T08:46:58.045Z,4.21
2022-11-19T08:49:24.454Z,4.23
2022-11-19T08:51:50.883Z,4.07
2022-11-19T08:54:17.919Z,4.12
2022-11-19T08:56:45.175Z,4.36
2022-11-19T08:59:11.578Z,4.42
2022-11-19T09:01:38.030Z,4.63
2022-11-19T09:04:04.669Z,4.41
2022-11-19T09:06:34.234Z,4.55
2022-11-19T09:09:01.209Z,4.60
2022-11-19T09:11:27.646Z,4.36
2022-11-19T09:13:55.074Z,4.28
2022-11-19T09:16:21.563Z,4.64
2022-11-19T09:18:47.987Z,4.22
2022-11-19T09:21:15.073Z,4.09
2022-11-19T09:23:42.592Z,3.65
2022-11-19T09:26:13.170Z,3.39
2022-11-19T09:28:39.975Z,3.03
2022-11-19T09:31:09.274Z,3.02
2022-11-19T09:33:38.238Z,3.04
2022-11-19T09:36:05.366Z,2.86
2022-11-19T09:38:34.778Z,2.43
2022-11-19T09:41:20.633Z,2.30
2022-11-19T09:44:11.928Z,2.64
2022-11-19T09:47:04.746Z,2.46
2022-11-19T09:49:54.250Z,2.67
2022-11-19T09:52:24.986Z,2.59
2022-11-19T09:54:56.586Z,3.04
2022-11-19T09:57:39.955Z,2.77
2022-11-19T10:00:08.190Z,2.77
2022-11-19T10:02:34.868Z,2.87
2022-11-19T10:05:01.643Z,3.00
2022-11-19T10:07:56.287Z,3.17
2022-11-19T10:11:01.912Z,3.10
2022-11-19T10:13:52.302Z,3.15
2022-11-19T10:16:27.863Z,3.08
2022-11-19T10:19:32.388Z,3.08
2022-11-19T10:22:23.473Z,3.22
2022-11-19T10:25:02.018Z,3.55
2022-11-19T10:27:42.776Z,3.92
2022-11-19T10:30:16.319Z,4.42
2022-11-19T10:32:47.058Z,4.71
2022-11-19T10:35:21.164Z,4.74
2022-11-19T10:38:00.363Z,4.55
2022-11-19T10:40:40.091Z,4.43
2022-11-19T10:43:23.989Z,4.09
2022-11-19T10:45:50.764Z,3.94
2022-11-19T10:48:23.314Z,3.74
2022-11-19T10:50:50.945Z,3.65
2022-11-19T10:53:36.483Z,4.63
2022-11-19T10:56:41.212Z,4.73
2022-11-19T10:59:18.980Z,4.55
2022-11-19T11:01:50.448Z,4.08
2022-11-19T11:04:21.282Z,3.82
2022-11-19T11:06:57.434Z,4.13
2022-11-19T11:09:33.149Z,4.37
2022-11-19T11:12:40.388Z,4.59
2022-11-19T11:15:21.922Z,4.12
2022-11-19T11:18:00.691Z,4.06
2022-11-19T11:20:28.840Z,4.28
2022-11-19T11:23:17.009Z,3.57
2022-11-19T11:26:02.263Z,3.44
2022-11-19T11:28:29.749Z,3.63
2022-11-19T11:31:09.274Z,3.70
2022-11-19T11:33:39.105Z,3.67
2022-11-19T11:36:19.540Z,3.61
2022-11-19T11:38:52.337Z,3.18
2022-11-19T11:44:19.967Z,3.24
2022-11-19T11:46:48.946Z,3.23
2022-11-19T11:49:27.935Z,2.91
2022-11-19T11:52:14.981Z,2.52
2022-11-19T11:54:55.961Z,2.19
2022-11-19T11:57:25.627Z,2.33
2022-11-19T11:59:52.056Z,2.00
2022-11-19T12:02:23.424Z,1.98
2022-11-19T12:04:51.066Z,2.07
2022-11-19T12:07:26.559Z,2.27
2022-11-19T12:10:25.011Z,2.37
2022-11-19T12:13:29.237Z,2.73
2022-11-19T12:16:29.533Z,2.62
2022-11-19T12:19:29.478Z,2.84
2022-11-19T12:22:15.502Z,2.96
2022-11-19T12:24:53.774Z,3.20
2022-11-19T12:27:20.141Z,3.36
2022-11-19T12:30:09.404Z,3.37
2022-11-19T12:33:06.706Z,3.10
2022-11-19T12:35:49.524Z,3.45
2022-11-19T12:38:39.168Z,3.76
2022-11-19T12:41:34.434Z,3.78
2022-11-19T12:44:03.527Z,3.33
2022-11-19T12:46:54.026Z,3.27
2022-11-19T12:49:29.582Z,3.16
2022-11-19T12:52:24.083Z,3.31
2022-11-19T12:55:25.741Z,3.48
2022-11-19T12:58:14.052Z,3.40
2022-11-19T13:00:58.150Z,3.84
2022-11-19T13:03:46.003Z,4.02
2022-11-19T13:06:28.729Z,4.01
2022-11-19T13:09:01.087Z,3.64
2022-11-19T13:11:44.707Z,3.52
2022-11-19T13:14:20.177Z,3.36
2022-11-19T13:16:47.357Z,3.42
2022-11-19T13:19:23.673Z,3.39
2022-11-19T13:21:55.246Z,3.37
2022-11-19T13:24:39.097Z,3.25
2022-11-19T13:27:17.667Z,3.41
2022-11-19T13:29:58.995Z,3.29
2022-11-19T13:32:48.436Z,3.38
2022-11-19T13:35:28.985Z,3.46
2022-11-19T13:38:05.446Z,3.85
2022-11-19T13:40:40.768Z,3.73
2022-11-19T13:43:33.449Z,3.70
2022-11-19T13:46:08.975Z,3.58
2022-11-19T13:48:42.054Z,3.89
2022-11-19T13:51:29.060Z,3.92
2022-11-19T13:54:02.606Z,3.51
2022-11-19T13:56:57.210Z,3.35
2022-11-19T13:59:29.421Z,3.32
2022-11-19T14:02:17.562Z,3.25
2022-11-19T14:05:02.699Z,3.22
2022-11-19T14:07:46.056Z,3.21
2022-11-19T14:10:27.587Z,3.18
2022-11-19T14:13:17.868Z,3.39
2022-11-19T14:16:16.356Z,3.34
2022-11-19T14:19:07.966Z,3.08
2022-11-19T14:21:52.960Z,3.08
2022-11-19T14:24:44.021Z,3.12
2022-11-19T14:27:17.204Z,3.14
2022-11-19T14:29:43.582Z,2.87
2022-11-19T14:32:09.955Z,3.04
2022-11-19T14:35:00.641Z,2.98
2022-11-19T14:37:34.261Z,2.82
2022-11-19T14:40:12.616Z,2.66
2022-11-19T14:43:19.527Z,2.68
2022-11-19T14:46:00.950Z,2.66
2022-11-19T14:48:29.694Z,2.67
2022-11-19T14:51:11.042Z,2.84
2022-11-19T14:53:55.402Z,2.80
2022-11-19T14:56:23.162Z,2.69
2022-11-19T14:59:02.714Z,2.64
2022-11-19T15:01:29.170Z,2.64
2022-11-19T15:04:00.235Z,2.50
2022-11-19T15:06:28.073Z,2.53
2022-11-19T15:09:01.843Z,2.43
2022-11-19T15:11:58.694Z,2.32
2022-11-19T15:14:28.111Z,2.31
2022-11-19T15:16:56.369Z,2.38
2022-11-19T15:20:16.831Z,2.41
2022-11-19T15:22:52.060Z,2.42
2022-11-19T15:25:29.789Z,2.44
2022-11-19T15:28:13.050Z,2.65
2022-11-19T15:30:49.147Z,2.65
2022-11-19T15:33:49.838Z,2.52
2022-11-19T15:36:55.409Z,2.52
2022-11-19T15:39:39.377Z,2.72
2022-11-19T15:42:12.374Z,2.55
2022-11-19T15:44:59.201Z,2.42
2022-11-19T15:47:33.669Z,2.43
2022-11-19T15:50:02.575Z,2.39
2022-11-19T15:52:31.996Z,2.63
2022-11-19T15:55:12.841Z,2.46
2022-11-19T15:57:43.776Z,2.46
2022-11-19T16:00:21.916Z,2.38
2022-11-19T16:02:53.206Z,2.46
2022-11-19T16:05:21.611Z,2.42
2022-11-19T16:07:49.416Z,2.56
2022-11-19T16:10:22.563Z,2.78
2022-11-19T16:13:12.892Z,2.91
2022-11-19T16:16:06.467Z,2.67
2022-11-19T16:18:33.017Z,2.73
2022-11-19T16:20:59.997Z,2.85
2022-11-19T16:23:27.713Z,2.82
2022-11-19T16:25:54.422Z,2.66
2022-11-19T16:28:27.677Z,2.84
2022-11-19T16:30:59.955Z,2.62
2022-11-19T16:33:28.773Z,2.61
2022-11-19T16:36:18.772Z,2.54
2022-11-19T16:38:51.026Z,2.57
2022-11-19T16:41:38.262Z,2.56
2022-11-19T16:44:09.188Z,2.33
2022-11-19T16:46:36.168Z,2.31
2022-11-19T16:49:04.107Z,2.68
2022-11-19T16:51:52.150Z,2.33
2022-11-19T16:54:37.275Z,2.48
2022-11-19T16:57:05.587Z,2.53
2022-11-19T16:59:33.454Z,2.34
2022-11-19T17:02:00.325Z,2.51
2022-11-19T17:04:30.154Z,2.75
2022-11-19T17:07:00.298Z,2.28
2022-11-19T17:09:47.325Z,2.16
2022-11-19T17:12:28.205Z,2.03
2022-11-19T17:15:21.871Z,2.05
2022-11-19T17:17:48.637Z,2.03
2022-11-19T17:20:26.979Z,2.07
2022-11-19T17:22:54.054Z,1.87
2022-11-19T17:25:20.537Z,2.05
2022-11-19T17:27:54.378Z,2.19
2022-11-19T17:30:25.153Z,2.03
2022-11-19T17:33:01.289Z,2.08
2022-11-19T17:35:37.405Z,2.01
2022-11-19T17:38:19.651Z,2.08
2022-11-19T17:40:50.416Z,2.20
2022-11-19T17:43:43.258Z,1.94
2022-11-19T17:46:10.414Z,2.14
2022-11-19T17:48:41.634Z,2.01
2022-11-19T17:51:26.736Z,1.80
2022-11-19T17:53:55.261Z,1.89
2022-11-19T17:56:27.177Z,1.76
2022-11-19T17:58:54.655Z,1.79
2022-11-19T18:01:22.054Z,1.78
2022-11-19T18:03:48.643Z,1.84
2022-11-19T18:06:17.271Z,1.90
2022-11-19T18:08:44.187Z,1.92
2022-11-19T18:11:13.351Z,1.65
2022-11-19T18:13:41.208Z,1.62
2022-11-19T18:16:16.821Z,1.76
2022-11-19T18:18:43.628Z,1.77
2022-11-19T18:21:15.673Z,1.74
2022-11-19T18:23:44.193Z,1.55
2022-11-19T18:26:15.817Z,1.55
2022-11-19T18:28:43.806Z,1.81
2022-11-19T18:31:26.576Z,1.76
2022-11-19T18:33:54.888Z,1.78
2022-11-19T18:36:21.949Z,1.75
2022-11-19T18:38:48.861Z,1.67
2022-11-19T18:41:18.817Z,1.54
2022-11-19T18:44:03.993Z,1.47
2022-11-19T18:46:30.662Z,1.65
2022-11-19T18:48:57.222Z,1.64
2022-11-19T18:51:31.223Z,1.78
2022-11-19T18:53:57.965Z,1.70
2022-11-19T18:56:24.643Z,1.69
2022-11-19T18:58:52.201Z,1.79
2022-11-19T19:01:18.797Z,1.58
2022-11-19T19:03:45.369Z,1.50
2022-11-19T19:06:12.186Z,1.56
2022-11-19T19:08:38.984Z,1.68
2022-11-19T19:11:26.257Z,1.58
2022-11-19T19:13:52.950Z,1.63
2022-11-19T19:16:19.444Z,1.67
2022-11-19T19:18:45.938Z,1.41
2022-11-19T19:21:14.290Z,1.50
2022-11-19T19:23:41.456Z,1.31
2022-11-19T19:26:09.130Z,1.34
2022-11-19T19:28:35.944Z,1.20
2022-11-19T19:31:02.647Z,1.15
2022-11-19T19:33:29.405Z,1.17
2022-11-19T19:35:56.256Z,1.07
2022-11-19T19:38:22.735Z,0.79
2022-11-19T19:40:49.329Z,0.91
2022-11-19T19:43:15.811Z,0.93
2022-11-19T19:45:42.253Z,1.01
2022-11-19T19:48:08.835Z,0.99
2022-11-19T19:50:35.253Z,0.87
2022-11-19T19:53:01.802Z,0.88
2022-11-19T19:55:28.238Z,0.78
2022-11-19T19:57:55.158Z,0.92
2022-11-19T20:00:23.560Z,0.90
2022-11-19T20:02:50.200Z,0.68
2022-11-19T20:05:16.666Z,0.83
2022-11-19T20:07:43.207Z,0.96
2022-11-19T20:10:10.094Z,0.60
2022-11-19T20:12:55.234Z,0.37
2022-11-19T20:15:21.655Z,0.69
2022-11-19T20:17:48.133Z,0.40
2022-11-19T20:20:14.603Z,0.37
2022-11-19T20:22:41.046Z,0.38
2022-11-19T20:25:07.836Z,0.37
2022-11-19T20:27:34.283Z,0.34
2022-11-19T20:30:00.708Z,0.36
2022-11-19T20:32:27.130Z,0.22
2022-11-19T20:34:53.595Z,0.29
2022-11-19T20:37:20.137Z,0.54
2022-11-19T20:39:46.631Z,0.38
2022-11-19T20:42:31.785Z,0.49
2022-11-19T20:44:58.228Z,0.33
2022-11-19T20:47:24.685Z,0.40
2022-11-19T20:49:51.140Z,0.39
2022-11-19T20:52:19.015Z,0.49
2022-11-19T20:54:45.460Z,0.45
2022-11-19T20:57:12.247Z,0.62
2022-11-19T20:59:38.841Z,0.29
2022-11-19T21:02:06.013Z,0.31
2022-11-19T21:04:36.513Z,0.43
2022-11-19T21:07:04.442Z,0.31
2022-11-19T21:09:31.173Z,0.34
2022-11-19T21:11:57.671Z,0.45
2022-11-19T21:14:24.238Z,0.56
2022-11-19T21:16:50.741Z,0.51
2022-11-19T21:19:17.253Z,0.52
2022-11-19T21:21:45.310Z,0.72
2022-11-19T21:24:11.883Z,0.59
2022-11-19T21:26:38.426Z,0.45
2022-11-19T21:29:04.886Z,0.36
2022-11-19T21:31:45.307Z,0.43
2022-11-19T21:34:17.798Z,0.20
2022-11-19T21:36:46.282Z,0.25
2022-11-19T21:39:14.665Z,0.38
2022-11-19T21:41:41.111Z,0.20
2022-11-19T21:44:08.077Z,0.18
2022-11-19T21:46:35.029Z,0.19
2022-11-19T21:49:01.866Z,0.31
2022-11-19T21:51:28.690Z,0.15
2022-11-19T21:53:58.427Z,-0.02
2022-11-19T21:56:26.763Z,-0.13
2022-11-19T21:58:53.248Z,-0.04
2022-11-19T22:01:19.867Z,-0.07
2022-11-19T22:03:46.474Z,-0.16
2022-11-19T22:06:13.033Z,-0.03
2022-11-19T22:08:41.623Z,-0.11
2022-11-19T22:11:28.049Z,-0.03
2022-11-19T22:13:55.935Z,-0.08
2022-11-19T22:16:22.713Z,0.09
2022-11-19T22:18:49.239Z,-0.10
2022-11-19T22:21:16.051Z,0.05
2022-11-19T22:23:42.792Z,0.34
2022-11-19T22:26:11.422Z,0.23
2022-11-19T22:28:38.274Z,0.08
2022-11-19T22:31:05.349Z,0.16
2022-11-19T22:33:39.510Z,0.04
2022-11-19T22:36:09.898Z,0.11
2022-11-19T22:38:38.471Z,0.20
2022-11-19T22:41:10.970Z,0.20
2022-11-19T22:43:38.849Z,0.21
2022-11-19T22:46:07.065Z,0.24
2022-11-19T22:48:34.274Z,0.26
2022-11-19T22:51:12.617Z,0.08
2022-11-19T22:53:39.978Z,-0.07
2022-11-19T22:56:08.928Z,0.16
2022-11-19T22:58:36.370Z,-0.18
2022-11-19T23:01:03.704Z,-0.15
2022-11-19T23:03:30.182Z,-0.22
2022-11-19T23:05:56.845Z,0.00
2022-11-19T23:08:23.344Z,0.01
2022-11-19T23:11:00.220Z,-0.15
2022-11-19T23:13:32.711Z,-0.14
2022-11-19T23:16:01.872Z,-0.24
2022-11-19T23:18:29.706Z,-0.12
2022-11-19T23:21:01.796Z,-0.03
2022-11-19T23:23:28.337Z,0.02
2022-11-19T23:25:59.065Z,-0.03
2022-11-19T23:28:27.168Z,-0.08
2022-11-19T23:30:53.963Z,-0.05
2022-11-19T23:33:20.802Z,-0.11
2022-11-19T23:35:47.902Z,-0.06
2022-11-19T23:38:15.167Z,-0.13
2022-11-19T23:40:41.653Z,0.02
2022-11-19T23:43:08.134Z,0.06
2022-11-19T23:45:35.932Z,0.06
2022-11-19T23:48:03.194Z,0.20
2022-11-19T23:50:29.965Z,0.29
2022-11-19T23:52:56.375Z,0.14
2022-11-19T23:55:22.810Z,0.26
2022-11-19T23:57:49.304Z,0.17
